Portada
METAR-TAF:

METAR-TAF

Aeropuertos :

Monticello Regional Airport

Monticello, Iowa, Estados Unidos

latitud: 42-14N, longitud: 091-10W, altitud: 259 m

Observación

El informe se hizo hace 23 minutos, a las 13:15 UTC
Viento 6 kt del sur con ráfagas de 12 kt
Temperatura 21°C
Humedad 94%
Presión 1015 hPa
Visibilidad: 16.1 km
Nubes dispersas a una altura de 4200 ft
Nubes dispersas a una altura de 4800 ft
Nubes dispersas a una altura de 5500 ft

METAR: KMXO 141315Z AUTO 19006G12KT 10SM SCT042 SCT048 SCT055 21/20 A2998 RMK AO2

Hora: 08:38 (13:38 UTC)


TAF: falta

Observaciones y pronósticos meteorológicos de más de 4000 aeropuertos (mensajes METAR y TAF).

Los puntos amarillos y rojos representan las estaciones disponibles.

Ponga el ratón en el punto deseado para ver el nombre de la estación.

Haga clic para ver las observaciones y los pronósticos meteorológicos.

Para cambiar el mapa : haga clic en los botones verdes con una cruz de color negro para hacer un zoom, en el botón verde con un guión para alejar o en las flechas verdes para mapas adyacentes.


METAR-TAF: